createdAt,value
2018-10-17T00:00:04.010Z,96821.74
2018-10-17T00:02:31.294Z,96820.84
2018-10-17T00:04:58.739Z,96829.28
2018-10-17T00:07:25.998Z,96821.75
2018-10-17T00:09:53.359Z,96823.42
2018-10-17T00:12:20.581Z,96827.02
2018-10-17T00:14:47.921Z,96825.44
2018-10-17T00:17:15.255Z,96833.22
2018-10-17T00:19:42.544Z,96828.11
2018-10-17T00:22:09.822Z,96828.30
2018-10-17T00:24:37.053Z,96827.39
2018-10-17T00:27:04.776Z,96824.23
2018-10-17T00:29:32.058Z,96829.64
2018-10-17T00:31:59.375Z,96825.51
2018-10-17T00:34:26.649Z,96813.61
2018-10-17T00:36:54.070Z,96816.73
2018-10-17T00:39:21.410Z,96812.09
2018-10-17T00:41:48.641Z,96814.52
2018-10-17T00:44:16.751Z,96815.49
2018-10-17T00:46:44.099Z,96816.73
2018-10-17T00:49:11.423Z,96819.70
2018-10-17T00:51:38.707Z,96819.99
2018-10-17T00:54:06.035Z,96812.11
2018-10-17T00:56:33.305Z,96812.55
2018-10-17T00:59:10.037Z,96813.15
2018-10-17T01:01:37.776Z,96806.62
2018-10-17T01:04:05.556Z,96807.55
2018-10-17T01:06:33.291Z,96806.17
2018-10-17T01:09:01.998Z,96806.63
2018-10-17T01:11:29.573Z,96807.64
2018-10-17T01:13:56.801Z,96800.91
2018-10-17T01:16:24.098Z,96803.17
2018-10-17T01:18:51.386Z,96801.19
2018-10-17T01:21:18.845Z,96797.13
2018-10-17T01:23:46.231Z,96801.77
2018-10-17T01:26:13.648Z,96794.80
2018-10-17T01:28:41.124Z,96789.30
2018-10-17T01:31:08.360Z,96791.92
2018-10-17T01:33:35.759Z,96786.70
2018-10-17T01:36:04.909Z,96791.35
2018-10-17T01:38:32.259Z,96792.28
2018-10-17T01:40:59.510Z,96783.89
2018-10-17T01:43:26.836Z,96787.64
2018-10-17T01:45:54.115Z,96782.80
2018-10-17T01:48:21.355Z,96781.86
2018-10-17T01:50:48.634Z,96785.77
2018-10-17T01:53:16.048Z,96780.56
2018-10-17T01:55:43.277Z,96780.36
2018-10-17T01:58:10.534Z,96779.25
2018-10-17T02:00:37.882Z,96778.60
2018-10-17T02:03:05.164Z,96774.14
2018-10-17T02:05:32.502Z,96770.53
2018-10-17T02:07:59.773Z,96774.27
2018-10-17T02:10:27.080Z,96771.25
2018-10-17T02:12:54.565Z,96767.54
2018-10-17T02:15:22.074Z,96771.73
2018-10-17T02:17:49.377Z,96766.97
2018-10-17T02:20:16.692Z,96770.59
2018-10-17T02:22:43.990Z,96770.72
2018-10-17T02:25:11.460Z,96766.25
2018-10-17T02:27:38.773Z,96768.12
2018-10-17T02:30:06.323Z,96770.06
2018-10-17T02:32:33.522Z,96761.41
2018-10-17T02:35:06.573Z,96765.31
2018-10-17T02:37:33.766Z,96766.09
2018-10-17T02:40:01.167Z,96764.95
2018-10-17T02:42:28.429Z,96766.89
2018-10-17T02:44:55.924Z,96766.36
2018-10-17T02:47:23.299Z,96775.72
2018-10-17T02:49:50.630Z,96765.50
2018-10-17T02:52:17.944Z,96762.70
2018-10-17T02:54:45.242Z,96759.73
2018-10-17T02:57:12.537Z,96760.39
2018-10-17T02:59:39.845Z,96757.33
2018-10-17T03:02:07.054Z,96758.08
2018-10-17T03:04:34.396Z,96758.55
2018-10-17T03:07:01.701Z,96761.81
2018-10-17T03:09:28.996Z,96767.18
2018-10-17T03:11:56.375Z,96764.94
2018-10-17T03:14:23.748Z,96767.17
2018-10-17T03:16:51.044Z,96771.99
2018-10-17T03:19:18.424Z,96774.02
2018-10-17T03:21:45.669Z,96770.89
2018-10-17T03:24:12.957Z,96771.99
2018-10-17T03:26:40.310Z,96777.94
2018-10-17T03:29:08.074Z,96775.98
2018-10-17T03:31:35.327Z,96773.96
2018-10-17T03:34:02.616Z,96774.91
2018-10-17T03:36:29.882Z,96775.72
2018-10-17T03:38:57.221Z,96775.55
2018-10-17T03:41:24.464Z,96773.50
2018-10-17T03:43:51.723Z,96770.42
2018-10-17T03:46:18.983Z,96770.90
2018-10-17T03:48:46.329Z,96769.22
2018-10-17T03:51:13.639Z,96765.68
2018-10-17T03:53:40.980Z,96766.79
2018-10-17T03:56:08.285Z,96767.45
2018-10-17T03:58:35.559Z,96771.06
2018-10-17T04:01:03.011Z,96767.53
2018-10-17T04:03:30.231Z,96761.95
2018-10-17T04:05:57.487Z,96766.60
2018-10-17T04:08:24.798Z,96740.70
2018-10-17T04:10:52.055Z,96767.12
2018-10-17T04:13:19.418Z,96775.13
2018-10-17T04:15:46.693Z,96773.81
2018-10-17T04:18:14.002Z,96774.83
2018-10-17T04:20:41.366Z,96774.47
2018-10-17T04:23:08.524Z,96775.48
2018-10-17T04:25:35.847Z,96781.25
2018-10-17T04:28:03.321Z,96778.56
2018-10-17T04:30:30.648Z,96783.13
2018-10-17T04:32:57.884Z,96775.69
2018-10-17T04:35:25.215Z,96780.89
2018-10-17T04:37:52.629Z,96778.66
2018-10-17T04:40:19.871Z,96780.51
2018-10-17T04:42:47.323Z,96778.45
2018-10-17T04:45:14.618Z,96783.27
2018-10-17T04:47:41.940Z,96775.09
2018-10-17T04:50:10.316Z,96775.67
2018-10-17T04:52:37.774Z,96780.02
2018-10-17T04:55:05.732Z,96777.33
2018-10-17T04:57:33.111Z,96778.36
2018-10-17T05:00:00.871Z,96782.53
2018-10-17T05:02:28.186Z,96772.81
2018-10-17T05:04:55.552Z,96780.30
2018-10-17T05:07:22.820Z,96776.98
2018-10-17T05:09:50.165Z,96780.07
2018-10-17T05:12:17.506Z,96780.94
2018-10-17T05:14:44.947Z,96781.09
2018-10-17T05:17:12.287Z,96782.09
2018-10-17T05:19:39.688Z,96783.25
2018-10-17T05:22:07.244Z,96771.03
2018-10-17T05:24:34.529Z,96778.73
2018-10-17T05:27:01.849Z,96779.88
2018-10-17T05:29:29.141Z,96778.03
2018-10-17T05:31:56.453Z,96779.33
2018-10-17T05:34:23.790Z,96778.80
2018-10-17T05:36:51.091Z,96780.81
2018-10-17T05:39:18.396Z,96778.95
2018-10-17T05:41:45.689Z,96783.94
2018-10-17T05:44:12.918Z,96777.44
2018-10-17T05:46:40.220Z,96784.90
2018-10-17T05:49:07.514Z,96786.49
2018-10-17T05:51:34.774Z,96784.75
2018-10-17T05:54:02.090Z,96785.79
2018-10-17T05:58:01.235Z,96784.23
2018-10-17T06:00:28.596Z,96789.35
2018-10-17T06:02:55.804Z,96787.05
2018-10-17T06:05:23.049Z,96792.17
2018-10-17T06:07:50.348Z,96791.36
2018-10-17T06:10:17.619Z,96795.84
2018-10-17T06:12:44.873Z,96800.21
2018-10-17T06:15:12.147Z,96792.52
2018-10-17T06:17:39.456Z,96794.55
2018-10-17T06:20:07.073Z,96792.80
2018-10-17T06:22:34.311Z,96795.27
2018-10-17T06:25:01.794Z,96796.20
2018-10-17T06:27:29.110Z,96801.06
2018-10-17T06:29:56.390Z,96795.80
2018-10-17T06:32:23.689Z,96795.66
2018-10-17T06:34:51.093Z,96803.12
2018-10-17T06:37:18.416Z,96805.83
2018-10-17T06:39:45.698Z,96809.02
2018-10-17T06:42:13.025Z,96801.34
2018-10-17T06:44:40.432Z,96805.09
2018-10-17T06:47:07.955Z,96801.48
2018-10-17T06:49:35.180Z,96800.53
2018-10-17T06:52:02.488Z,96797.97
2018-10-17T06:54:30.152Z,96794.80
2018-10-17T06:56:57.312Z,96794.92
2018-10-17T06:59:24.648Z,96795.43
2018-10-17T07:01:52.014Z,96793.20
2018-10-17T07:04:20.065Z,96792.48
2018-10-17T07:06:47.367Z,96791.75
2018-10-17T07:09:14.727Z,96791.03
2018-10-17T07:11:42.007Z,96784.47
2018-10-17T07:14:09.294Z,96780.25
2018-10-17T07:16:36.583Z,96779.13
2018-10-17T07:19:04.143Z,96782.86
2018-10-17T07:21:31.464Z,96781.42
2018-10-17T07:23:58.794Z,96773.75
2018-10-17T07:26:26.076Z,96781.21
2018-10-17T07:28:53.981Z,96780.38
2018-10-17T07:31:21.196Z,96781.38
2018-10-17T07:33:48.560Z,96780.80
2018-10-17T07:36:15.970Z,96784.34
2018-10-17T07:38:43.226Z,96781.98
2018-10-17T07:41:10.539Z,96785.24
2018-10-17T07:43:37.821Z,96787.00
2018-10-17T07:46:05.125Z,96785.14
2018-10-17T07:48:32.331Z,96790.03
2018-10-17T07:50:59.649Z,96789.02
2018-10-17T07:53:26.938Z,96786.84
2018-10-17T07:55:54.224Z,96786.42
2018-10-17T07:58:22.863Z,96787.25
2018-10-17T08:00:50.148Z,96783.95
2018-10-17T08:03:17.465Z,96778.30
2018-10-17T08:05:44.694Z,96785.80
2018-10-17T08:08:11.997Z,96789.30
2018-10-17T08:10:39.351Z,96785.67
2018-10-17T08:13:06.675Z,96785.51
2018-10-17T08:15:34.168Z,96783.59
2018-10-17T08:18:01.464Z,96783.07
2018-10-17T08:20:28.696Z,96774.06
2018-10-17T08:22:56.008Z,96780.27
2018-10-17T08:25:23.328Z,96776.53
2018-10-17T08:27:50.633Z,96772.41
2018-10-17T08:30:17.927Z,96779.44
2018-10-17T08:32:45.224Z,96781.31
2018-10-17T08:35:12.538Z,96773.17
2018-10-17T08:37:40.230Z,96780.77
2018-10-17T08:40:07.129Z,96782.64
2018-10-17T08:42:34.472Z,96777.35
2018-10-17T08:45:01.829Z,96775.13
2018-10-17T08:47:29.162Z,96777.05
2018-10-17T08:49:56.839Z,96780.05
2018-10-17T08:52:24.268Z,96776.80
2018-10-17T08:54:51.638Z,96774.52
2018-10-17T08:57:18.956Z,96769.70
2018-10-17T08:59:46.167Z,96769.89
2018-10-17T09:02:13.530Z,96771.20
2018-10-17T09:04:40.678Z,96769.27
2018-10-17T09:07:07.925Z,96765.59
2018-10-17T09:09:35.175Z,96771.41
2018-10-17T09:12:02.477Z,96764.80
2018-10-17T09:14:29.729Z,96770.78
2018-10-17T09:16:57.021Z,96769.02
2018-10-17T09:19:24.392Z,96774.58
2018-10-17T09:21:52.088Z,96771.89
2018-10-17T09:24:19.184Z,96772.82
2018-10-17T09:26:46.585Z,96772.38
2018-10-17T09:29:13.907Z,96774.16
2018-10-17T09:31:41.193Z,96770.46
2018-10-17T09:34:08.534Z,96766.25
2018-10-17T09:36:35.819Z,96769.61
2018-10-17T09:39:04.282Z,96765.66
2018-10-17T09:41:31.573Z,96766.57
2018-10-17T09:43:58.918Z,96759.89
2018-10-17T09:46:26.261Z,96766.91
2018-10-17T09:48:53.504Z,96764.45
2018-10-17T09:51:20.799Z,96760.59
2018-10-17T09:53:48.093Z,96764.45
2018-10-17T09:56:15.347Z,96761.70
2018-10-17T09:58:42.663Z,96761.00
2018-10-17T10:01:15.714Z,96752.03
2018-10-17T10:03:43.022Z,96752.41
2018-10-17T10:06:10.409Z,96747.67
2018-10-17T10:08:37.721Z,96744.89
2018-10-17T10:11:05.616Z,96745.45
2018-10-17T10:13:32.899Z,96744.27
2018-10-17T10:16:00.221Z,96741.38
2018-10-17T10:18:27.439Z,96743.31
2018-10-17T10:20:54.691Z,96731.91
2018-10-17T10:23:22.108Z,96732.33
2018-10-17T10:25:49.442Z,96727.80
2018-10-17T10:28:16.937Z,96724.37
2018-10-17T10:30:44.215Z,96729.83
2018-10-17T10:33:11.469Z,96721.46
2018-10-17T10:35:38.698Z,96714.39
2018-10-17T10:38:06.267Z,96718.62
2018-10-17T10:40:34.002Z,96716.25
2018-10-17T10:43:01.516Z,96721.25
2018-10-17T10:45:28.896Z,96718.95
2018-10-17T10:47:56.141Z,96720.23
2018-10-17T10:50:23.466Z,96710.83
2018-10-17T10:52:50.805Z,96706.75
2018-10-17T10:55:18.005Z,96710.73
2018-10-17T10:57:45.275Z,96708.73
2018-10-17T11:00:12.721Z,96709.15
2018-10-17T11:02:40.053Z,96710.09
2018-10-17T11:05:07.520Z,96707.97
2018-10-17T11:07:34.808Z,96709.25
2018-10-17T11:10:02.298Z,96711.06
2018-10-17T11:12:29.669Z,96705.38
2018-10-17T11:15:01.265Z,96707.47
2018-10-17T11:17:28.321Z,96705.14
2018-10-17T11:19:55.615Z,96708.75
2018-10-17T11:22:22.931Z,96691.80
2018-10-17T11:24:50.348Z,96699.02
2018-10-17T11:27:17.753Z,96691.69
2018-10-17T11:29:44.965Z,96691.52
2018-10-17T11:32:12.270Z,96690.27
2018-10-17T11:34:39.603Z,96684.14
2018-10-17T11:37:06.863Z,96686.36
2018-10-17T11:39:34.229Z,96681.83
2018-10-17T11:42:01.535Z,96682.64
2018-10-17T11:44:28.816Z,96680.47
2018-10-17T11:46:56.089Z,96674.53
2018-10-17T11:49:23.435Z,96668.45
2018-10-17T11:51:51.373Z,96673.77
2018-10-17T11:54:18.708Z,96673.63
2018-10-17T11:56:46.094Z,96677.40
2018-10-17T11:59:13.453Z,96669.23
2018-10-17T12:01:40.702Z,96659.99
2018-10-17T12:04:08.222Z,96665.24
2018-10-17T12:06:35.554Z,96657.89
2018-10-17T12:09:03.913Z,96657.72
2018-10-17T12:11:31.264Z,96653.47
2018-10-17T12:13:58.467Z,96643.73
2018-10-17T12:16:25.773Z,96652.55
2018-10-17T12:18:53.135Z,96647.79
2018-10-17T12:21:20.402Z,96645.97
2018-10-17T12:23:47.679Z,96636.74
2018-10-17T12:26:15.046Z,96642.46
2018-10-17T12:28:42.422Z,96634.20
2018-10-17T12:31:09.657Z,96642.95
2018-10-17T12:33:36.943Z,96637.41
2018-10-17T12:36:06.271Z,96632.72
2018-10-17T12:38:33.542Z,96625.77
2018-10-17T12:41:00.991Z,96627.53
2018-10-17T12:43:28.141Z,96628.19
2018-10-17T12:45:55.510Z,96621.03
2018-10-17T12:48:22.821Z,96620.31
2018-10-17T12:50:50.101Z,96626.91
2018-10-17T12:53:17.471Z,96622.20
2018-10-17T12:55:44.951Z,96623.91
2018-10-17T12:58:12.258Z,96625.67
2018-10-17T13:00:39.537Z,96617.73
2018-10-17T13:03:06.845Z,96619.70
2018-10-17T13:05:34.479Z,96619.66
2018-10-17T13:08:01.835Z,96621.36
2018-10-17T13:10:29.147Z,96619.08
2018-10-17T13:12:56.457Z,96619.47
2018-10-17T13:15:23.686Z,96618.89
2018-10-17T13:17:50.992Z,96619.69
2018-10-17T13:20:18.268Z,96615.89
2018-10-17T13:22:45.579Z,96616.05
2018-10-17T13:25:12.898Z,96614.38
2018-10-17T13:27:40.163Z,96610.97
2018-10-17T13:30:07.848Z,96611.07
2018-10-17T13:32:35.154Z,96612.53
2018-10-17T13:35:02.403Z,96612.64
2018-10-17T13:37:29.723Z,96610.69
2018-10-17T13:39:57.031Z,96610.70
2018-10-17T13:42:24.340Z,96608.43
2018-10-17T13:44:51.604Z,96609.23
2018-10-17T13:47:19.054Z,96610.34
2018-10-17T13:49:46.442Z,96601.23
2018-10-17T13:52:13.561Z,96600.64
2018-10-17T13:54:40.829Z,96605.74
2018-10-17T13:57:08.120Z,96604.00
2018-10-17T13:59:35.503Z,96606.28
2018-10-17T14:02:02.810Z,96609.05
2018-10-17T14:04:30.132Z,96606.33
2018-10-17T14:06:57.446Z,96606.12
2018-10-17T14:09:24.756Z,96599.22
2018-10-17T14:11:52.141Z,96601.59
2018-10-17T14:14:19.496Z,96602.79
2018-10-17T14:16:46.927Z,96608.27
2018-10-17T14:19:14.331Z,96607.18
2018-10-17T14:21:41.589Z,96608.27
2018-10-17T14:24:09.016Z,96606.13
2018-10-17T14:26:36.309Z,96606.46
2018-10-17T14:29:03.632Z,96601.43
2018-10-17T14:31:30.892Z,96599.03
2018-10-17T14:33:58.187Z,96599.50
2018-10-17T14:36:25.566Z,96600.47
2018-10-17T14:38:52.825Z,96602.55
2018-10-17T14:41:20.271Z,96600.23
2018-10-17T14:43:47.505Z,96592.91
2018-10-17T14:46:14.774Z,96593.81
2018-10-17T14:48:42.074Z,96597.38
2018-10-17T14:51:09.348Z,96599.69
2018-10-17T14:53:36.631Z,96605.55
2018-10-17T14:56:04.087Z,96595.23
2018-10-17T14:58:31.303Z,96598.31
2018-10-17T15:00:58.599Z,96596.66
2018-10-17T15:03:25.980Z,96594.19
2018-10-17T15:05:53.349Z,96594.45
2018-10-17T15:08:20.634Z,96602.59
2018-10-17T15:10:47.998Z,96596.45
2018-10-17T15:13:15.222Z,96597.22
2018-10-17T15:15:44.081Z,96599.97
2018-10-17T15:18:11.541Z,96592.22
2018-10-17T15:20:38.770Z,96591.47
2018-10-17T15:23:06.192Z,96597.23
2018-10-17T15:25:33.495Z,96590.95
2018-10-17T15:28:00.764Z,96595.03
2018-10-17T15:30:28.051Z,96599.25
2018-10-17T15:32:55.417Z,96596.47
2018-10-17T15:35:22.749Z,96594.37
2018-10-17T15:37:50.090Z,96594.31
2018-10-17T15:40:17.346Z,96596.34
2018-10-17T15:42:44.647Z,96591.88
2018-10-17T15:45:12.111Z,96588.79
2018-10-17T15:47:39.288Z,96587.95
2018-10-17T15:50:06.620Z,96594.66
2018-10-17T15:52:33.945Z,96592.76
2018-10-17T15:55:01.241Z,96594.16
2018-10-17T15:57:28.520Z,96597.11
2018-10-17T15:59:56.172Z,96599.80
2018-10-17T16:02:23.588Z,96602.33
2018-10-17T16:04:50.925Z,96605.02
2018-10-17T16:07:18.349Z,96595.74
2018-10-17T16:09:45.572Z,96596.73
2018-10-17T16:12:13.022Z,96592.16
2018-10-17T16:14:40.476Z,96595.81
2018-10-17T16:17:07.875Z,96592.17
2018-10-17T16:19:35.138Z,96596.14
2018-10-17T16:22:02.383Z,96600.77
2018-10-17T16:24:29.668Z,96599.94
2018-10-17T16:26:57.052Z,96604.33
2018-10-17T16:29:24.271Z,96607.24
2018-10-17T16:31:51.549Z,96609.84
2018-10-17T16:34:18.864Z,96616.06
2018-10-17T16:36:46.191Z,96614.31
2018-10-17T16:39:13.455Z,96614.23
2018-10-17T16:41:40.838Z,96621.14
2018-10-17T16:44:08.583Z,96621.22
2018-10-17T16:46:36.171Z,96625.95
2018-10-17T16:49:03.627Z,96625.24
2018-10-17T16:51:31.109Z,96632.45
2018-10-17T16:53:58.613Z,96634.00
2018-10-17T16:56:25.881Z,96639.03
2018-10-17T16:58:53.468Z,96640.34
2018-10-17T17:01:20.687Z,96642.02
2018-10-17T17:03:47.919Z,96643.41
2018-10-17T17:06:15.288Z,96644.14
2018-10-17T17:08:42.578Z,96653.55
2018-10-17T17:11:09.913Z,96654.39
2018-10-17T17:13:37.244Z,96657.99
2018-10-17T17:16:04.744Z,96654.95
2018-10-17T17:18:32.057Z,96655.78
2018-10-17T17:20:59.404Z,96662.14
2018-10-17T17:23:26.753Z,96659.70
2018-10-17T17:25:54.189Z,96661.47
2018-10-17T17:28:21.537Z,96662.25
2018-10-17T17:30:48.802Z,96668.41
2018-10-17T17:33:16.291Z,96665.53
2018-10-17T17:35:43.490Z,96671.38
2018-10-17T17:38:10.820Z,96674.89
2018-10-17T17:40:38.094Z,96673.09
2018-10-17T17:43:05.814Z,96676.12
2018-10-17T17:45:33.335Z,96671.31
2018-10-17T17:48:00.580Z,96670.31
2018-10-17T17:50:27.825Z,96669.97
2018-10-17T17:52:55.132Z,96674.95
2018-10-17T17:55:22.416Z,96679.33
2018-10-17T17:57:49.912Z,96677.21
2018-10-17T18:00:17.185Z,96680.95
2018-10-17T18:02:44.488Z,96690.10
2018-10-17T18:05:11.832Z,96684.48
2018-10-17T18:07:39.228Z,96687.47
2018-10-17T18:10:07.040Z,96688.81
2018-10-17T18:12:34.309Z,96688.87
2018-10-17T18:15:01.677Z,96692.69
2018-10-17T18:17:29.123Z,96697.88
2018-10-17T18:19:56.482Z,96695.42
2018-10-17T18:22:23.869Z,96697.24
2018-10-17T18:27:27.816Z,96699.66
2018-10-17T18:29:55.162Z,96707.86
2018-10-17T18:32:22.495Z,96709.36
2018-10-17T18:34:49.859Z,96704.92
2018-10-17T18:37:17.131Z,96712.01
2018-10-17T18:39:44.436Z,96710.53
2018-10-17T18:42:11.764Z,96717.95
2018-10-17T18:44:39.051Z,96715.67
2018-10-17T18:47:06.428Z,96719.06
2018-10-17T18:49:33.674Z,96716.77
2018-10-17T18:52:00.969Z,96719.29
2018-10-17T18:54:28.258Z,96730.23
2018-10-17T18:56:55.515Z,96724.74
2018-10-17T18:59:22.852Z,96729.03
2018-10-17T19:01:50.145Z,96730.36
2018-10-17T19:04:17.410Z,96726.88
2018-10-17T19:06:44.891Z,96731.13
2018-10-17T19:09:13.381Z,96737.72
2018-10-17T19:11:40.616Z,96737.48
2018-10-17T19:14:08.292Z,96745.98
2018-10-17T19:16:35.620Z,96742.95
2018-10-17T19:19:03.473Z,96745.24
2018-10-17T19:21:30.843Z,96753.86
2018-10-17T19:23:58.440Z,96747.88
2018-10-17T19:26:25.692Z,96746.69
2018-10-17T19:28:52.971Z,96753.78
2018-10-17T19:31:20.295Z,96752.13
2018-10-17T19:33:47.702Z,96760.64
2018-10-17T19:36:15.045Z,96754.59
2018-10-17T19:38:42.404Z,96757.94
2018-10-17T19:41:10.293Z,96760.81
2018-10-17T19:43:37.607Z,96761.55
2018-10-17T19:46:04.953Z,96767.25
2018-10-17T19:48:32.227Z,96766.28
2018-10-17T19:50:59.550Z,96767.41
2018-10-17T19:53:26.815Z,96771.52
2018-10-17T19:55:54.362Z,96771.22
2018-10-17T19:58:21.709Z,96768.25
2018-10-17T20:00:49.006Z,96771.84
2018-10-17T20:03:16.401Z,96768.17
2018-10-17T20:05:43.643Z,96769.41
2018-10-17T20:08:11.178Z,96763.92
2018-10-17T20:10:38.508Z,96744.78
2018-10-17T20:13:05.843Z,96767.08
2018-10-17T20:15:33.162Z,96770.44
2018-10-17T20:18:00.447Z,96769.63
2018-10-17T20:20:27.843Z,96769.05
2018-10-17T20:22:55.227Z,96767.35
2018-10-17T20:25:22.541Z,96765.69
2018-10-17T20:27:49.893Z,96752.44
2018-10-17T20:30:17.405Z,96761.16
2018-10-17T20:32:44.611Z,96765.10
2018-10-17T20:35:12.085Z,96743.80
2018-10-17T20:37:39.420Z,96779.20
2018-10-17T20:40:06.797Z,96775.52
2018-10-17T20:42:34.047Z,96768.38
2018-10-17T20:45:01.353Z,96773.62
2018-10-17T20:47:28.633Z,96777.39
2018-10-17T20:49:56.003Z,96778.47
2018-10-17T20:52:23.474Z,96773.11
2018-10-17T20:54:50.591Z,96778.83
2018-10-17T20:57:17.833Z,96774.69
2018-10-17T20:59:45.064Z,96778.02
2018-10-17T21:02:12.478Z,96774.69
2018-10-17T21:04:39.702Z,96777.91
2018-10-17T21:07:07.047Z,96767.64
2018-10-17T21:09:34.279Z,96775.53
2018-10-17T21:12:01.634Z,96778.03
2018-10-17T21:14:29.010Z,96775.89
2018-10-17T21:16:56.263Z,96775.52
2018-10-17T21:19:23.588Z,96775.28
2018-10-17T21:21:50.892Z,96776.70
2018-10-17T21:24:18.191Z,96783.04
2018-10-17T21:26:45.549Z,96776.37
2018-10-17T21:29:12.790Z,96776.05
2018-10-17T21:31:40.080Z,96779.60
2018-10-17T21:34:07.332Z,96778.89
2018-10-17T21:36:34.612Z,96782.11
2018-10-17T21:39:01.960Z,96775.80
2018-10-17T21:41:29.255Z,96776.16
2018-10-17T21:43:56.556Z,96776.34
2018-10-17T21:46:23.899Z,96773.38
2018-10-17T21:48:51.175Z,96773.48
2018-10-17T21:51:18.461Z,96777.53
2018-10-17T21:53:45.725Z,96767.89
2018-10-17T21:56:13.130Z,96771.69
2018-10-17T21:58:40.288Z,96763.72
2018-10-17T22:01:07.702Z,96770.27
2018-10-17T22:03:34.993Z,96764.08
2018-10-17T22:06:02.289Z,96768.47
2018-10-17T22:08:29.643Z,96765.60
2018-10-17T22:10:56.954Z,96755.61
2018-10-17T22:13:24.197Z,96764.19
2018-10-17T22:15:51.486Z,96760.97
2018-10-17T22:18:18.850Z,96768.55
2018-10-17T22:20:46.178Z,96762.95
2018-10-17T22:23:13.437Z,96758.20
2018-10-17T22:25:40.750Z,96757.91
2018-10-17T22:28:08.040Z,96760.58
2018-10-17T22:30:35.337Z,96770.66
2018-10-17T22:33:02.656Z,96771.50
2018-10-17T22:35:29.913Z,96767.94
2018-10-17T22:37:57.247Z,96769.34
2018-10-17T22:40:24.606Z,96766.98
2018-10-17T22:42:52.002Z,96773.78
2018-10-17T22:45:19.257Z,96765.91
2018-10-17T22:47:46.530Z,96774.69
2018-10-17T22:50:13.884Z,96773.38
2018-10-17T22:52:41.235Z,96775.04
2018-10-17T22:55:08.560Z,96776.44
2018-10-17T22:57:35.992Z,96783.17
2018-10-17T23:00:03.325Z,96778.69
2018-10-17T23:02:30.645Z,96771.44
2018-10-17T23:04:57.912Z,96773.35
2018-10-17T23:07:25.917Z,96770.75
2018-10-17T23:09:53.109Z,96767.88
2018-10-17T23:12:20.423Z,96769.28
2018-10-17T23:14:47.812Z,96758.18
2018-10-17T23:17:15.036Z,96774.09
2018-10-17T23:19:42.294Z,96774.02
2018-10-17T23:22:09.619Z,96777.56
2018-10-17T23:24:36.888Z,96777.67
2018-10-17T23:27:04.200Z,96772.33
2018-10-17T23:29:31.569Z,96772.23
2018-10-17T23:31:58.813Z,96770.92
2018-10-17T23:34:26.062Z,96773.89
2018-10-17T23:36:53.373Z,96771.61
2018-10-17T23:39:20.673Z,96765.32
2018-10-17T23:41:47.926Z,96763.72
2018-10-17T23:44:15.387Z,96768.86
2018-10-17T23:46:42.638Z,96770.77
2018-10-17T23:49:09.947Z,96761.80
2018-10-17T23:51:37.266Z,96767.34
2018-10-17T23:54:04.702Z,96763.58
2018-10-17T23:56:31.921Z,96754.14
2018-10-17T23:58:59.189Z,96759.09
